sensor_id;sensor_type;location;lat;lon;timestamp;P1;durP1;ratioP1;P2;durP2;ratioP2
46128;SDS011;31860;45.186;5.790;2023-03-07T00:00:35;0.85;;;0.80;;
46128;SDS011;31860;45.186;5.790;2023-03-07T00:03:01;3.65;;;1.95;;
46128;SDS011;31860;45.186;5.790;2023-03-07T00:05:26;4.72;;;1.25;;
46128;SDS011;31860;45.186;5.790;2023-03-07T00:07:52;3.10;;;2.05;;
46128;SDS011;31860;45.186;5.790;2023-03-07T00:10:17;2.22;;;1.35;;
46128;SDS011;31860;45.186;5.790;2023-03-07T00:12:43;8.25;;;1.70;;
46128;SDS011;31860;45.186;5.790;2023-03-07T00:15:09;1.85;;;1.10;;
46128;SDS011;31860;45.186;5.790;2023-03-07T00:17:35;3.15;;;1.42;;
46128;SDS011;31860;45.186;5.790;2023-03-07T00:20:02;1.02;;;0.95;;
46128;SDS011;31860;45.186;5.790;2023-03-07T00:22:31;1.30;;;1.20;;
46128;SDS011;31860;45.186;5.790;2023-03-07T00:24:56;0.90;;;0.90;;
46128;SDS011;31860;45.186;5.790;2023-03-07T00:27:22;7.47;;;1.55;;
46128;SDS011;31860;45.186;5.790;2023-03-07T00:29:47;1.90;;;1.15;;
46128;SDS011;31860;45.186;5.790;2023-03-07T00:32:14;0.70;;;0.70;;
46128;SDS011;31860;45.186;5.790;2023-03-07T00:34:40;1.23;;;1.15;;
46128;SDS011;31860;45.186;5.790;2023-03-07T00:37:06;0.73;;;0.65;;
46128;SDS011;31860;45.186;5.790;2023-03-07T00:39:31;5.10;;;1.20;;
46128;SDS011;31860;45.186;5.790;2023-03-07T00:41:57;7.55;;;1.85;;
46128;SDS011;31860;45.186;5.790;2023-03-07T00:44:23;1.10;;;0.82;;
46128;SDS011;31860;45.186;5.790;2023-03-07T00:46:49;2.42;;;1.17;;
46128;SDS011;31860;45.186;5.790;2023-03-07T00:49:15;1.08;;;0.80;;
46128;SDS011;31860;45.186;5.790;2023-03-07T00:51:40;1.50;;;1.40;;
46128;SDS011;31860;45.186;5.790;2023-03-07T00:54:05;1.38;;;0.50;;
46128;SDS011;31860;45.186;5.790;2023-03-07T00:56:31;0.60;;;0.60;;
46128;SDS011;31860;45.186;5.790;2023-03-07T00:58:56;3.60;;;1.33;;
46128;SDS011;31860;45.186;5.790;2023-03-07T01:01:22;1.10;;;1.00;;
46128;SDS011;31860;45.186;5.790;2023-03-07T01:03:49;2.88;;;1.83;;
46128;SDS011;31860;45.186;5.790;2023-03-07T01:06:19;2.85;;;1.45;;
46128;SDS011;31860;45.186;5.790;2023-03-07T01:08:46;0.75;;;0.65;;
46128;SDS011;31860;45.186;5.790;2023-03-07T01:11:11;1.42;;;1.33;;
46128;SDS011;31860;45.186;5.790;2023-03-07T01:13:37;1.52;;;1.42;;
46128;SDS011;31860;45.186;5.790;2023-03-07T01:18:32;1.35;;;1.25;;
46128;SDS011;31860;45.186;5.790;2023-03-07T01:20:57;4.25;;;0.90;;
46128;SDS011;31860;45.186;5.790;2023-03-07T01:23:23;1.10;;;0.90;;
46128;SDS011;31860;45.186;5.790;2023-03-07T01:25:48;4.00;;;1.48;;
46128;SDS011;31860;45.186;5.790;2023-03-07T01:28:13;1.25;;;0.90;;
46128;SDS011;31860;45.186;5.790;2023-03-07T01:30:39;5.55;;;1.10;;
46128;SDS011;31860;45.186;5.790;2023-03-07T01:33:05;2.38;;;1.38;;
46128;SDS011;31860;45.186;5.790;2023-03-07T01:35:35;1.60;;;1.13;;
46128;SDS011;31860;45.186;5.790;2023-03-07T01:38:01;1.85;;;1.30;;
46128;SDS011;31860;45.186;5.790;2023-03-07T01:40:27;1.75;;;1.23;;
46128;SDS011;31860;45.186;5.790;2023-03-07T01:42:52;1.25;;;0.90;;
46128;SDS011;31860;45.186;5.790;2023-03-07T01:47:58;1.83;;;1.38;;
46128;SDS011;31860;45.186;5.790;2023-03-07T01:50:24;0.75;;;0.70;;
46128;SDS011;31860;45.186;5.790;2023-03-07T01:52:52;1.83;;;0.70;;
46128;SDS011;31860;45.186;5.790;2023-03-07T01:55:21;1.63;;;1.45;;
46128;SDS011;31860;45.186;5.790;2023-03-07T01:57:51;2.42;;;1.90;;
46128;SDS011;31860;45.186;5.790;2023-03-07T02:00:19;0.80;;;0.80;;
46128;SDS011;31860;45.186;5.790;2023-03-07T02:05:39;1.80;;;1.30;;
46128;SDS011;31860;45.186;5.790;2023-03-07T02:08:07;1.67;;;0.90;;
46128;SDS011;31860;45.186;5.790;2023-03-07T02:10:36;6.10;;;1.58;;
46128;SDS011;31860;45.186;5.790;2023-03-07T02:13:02;1.30;;;1.20;;
46128;SDS011;31860;45.186;5.790;2023-03-07T02:15:28;1.58;;;1.23;;
46128;SDS011;31860;45.186;5.790;2023-03-07T02:17:53;1.48;;;1.38;;
46128;SDS011;31860;45.186;5.790;2023-03-07T02:23:03;1.77;;;1.60;;
46128;SDS011;31860;45.186;5.790;2023-03-07T02:28:18;2.35;;;0.80;;
46128;SDS011;31860;45.186;5.790;2023-03-07T02:30:56;1.17;;;0.95;;
46128;SDS011;31860;45.186;5.790;2023-03-07T02:33:23;2.28;;;1.45;;
46128;SDS011;31860;45.186;5.790;2023-03-07T02:35:51;1.35;;;1.13;;
46128;SDS011;31860;45.186;5.790;2023-03-07T02:38:20;0.95;;;0.93;;
46128;SDS011;31860;45.186;5.790;2023-03-07T02:40:47;2.75;;;1.63;;
46128;SDS011;31860;45.186;5.790;2023-03-07T02:43:12;2.53;;;1.05;;
46128;SDS011;31860;45.186;5.790;2023-03-07T02:45:39;3.00;;;1.70;;
46128;SDS011;31860;45.186;5.790;2023-03-07T02:48:04;1.10;;;1.10;;
46128;SDS011;31860;45.186;5.790;2023-03-07T02:50:30;7.22;;;1.73;;
46128;SDS011;31860;45.186;5.790;2023-03-07T02:52:55;1.75;;;1.40;;
46128;SDS011;31860;45.186;5.790;2023-03-07T02:55:20;2.58;;;1.27;;
46128;SDS011;31860;45.186;5.790;2023-03-07T02:57:46;2.50;;;1.55;;
46128;SDS011;31860;45.186;5.790;2023-03-07T03:00:12;1.33;;;1.23;;
46128;SDS011;31860;45.186;5.790;2023-03-07T03:02:38;4.35;;;1.75;;
46128;SDS011;31860;45.186;5.790;2023-03-07T03:05:04;4.75;;;1.98;;
46128;SDS011;31860;45.186;5.790;2023-03-07T03:07:29;1.65;;;1.05;;
46128;SDS011;31860;45.186;5.790;2023-03-07T03:09:55;1.15;;;0.95;;
46128;SDS011;31860;45.186;5.790;2023-03-07T03:12:20;2.03;;;1.65;;
46128;SDS011;31860;45.186;5.790;2023-03-07T03:14:45;1.73;;;1.45;;
46128;SDS011;31860;45.186;5.790;2023-03-07T03:17:11;2.72;;;1.23;;
46128;SDS011;31860;45.186;5.790;2023-03-07T03:19:36;1.80;;;1.30;;
46128;SDS011;31860;45.186;5.790;2023-03-07T03:22:02;1.25;;;1.10;;
46128;SDS011;31860;45.186;5.790;2023-03-07T03:24:27;7.45;;;1.60;;
46128;SDS011;31860;45.186;5.790;2023-03-07T03:26:56;1.83;;;1.40;;
46128;SDS011;31860;45.186;5.790;2023-03-07T03:29:24;2.33;;;1.70;;
46128;SDS011;31860;45.186;5.790;2023-03-07T03:31:50;3.55;;;1.65;;
46128;SDS011;31860;45.186;5.790;2023-03-07T03:34:15;6.53;;;1.88;;
46128;SDS011;31860;45.186;5.790;2023-03-07T03:36:41;2.47;;;1.45;;
46128;SDS011;31860;45.186;5.790;2023-03-07T03:39:06;1.73;;;1.30;;
46128;SDS011;31860;45.186;5.790;2023-03-07T03:41:35;1.77;;;1.45;;
46128;SDS011;31860;45.186;5.790;2023-03-07T03:44:01;5.40;;;2.33;;
46128;SDS011;31860;45.186;5.790;2023-03-07T03:46:26;2.15;;;1.77;;
46128;SDS011;31860;45.186;5.790;2023-03-07T03:48:52;1.77;;;1.38;;
46128;SDS011;31860;45.186;5.790;2023-03-07T03:51:19;1.00;;;0.98;;
46128;SDS011;31860;45.186;5.790;2023-03-07T03:53:45;1.08;;;0.82;;
46128;SDS011;31860;45.186;5.790;2023-03-07T03:56:11;3.15;;;1.55;;
46128;SDS011;31860;45.186;5.790;2023-03-07T03:58:39;1.20;;;1.10;;
46128;SDS011;31860;45.186;5.790;2023-03-07T04:01:05;2.38;;;1.38;;
46128;SDS011;31860;45.186;5.790;2023-03-07T04:03:33;2.05;;;1.30;;
46128;SDS011;31860;45.186;5.790;2023-03-07T04:06:03;0.98;;;0.98;;
46128;SDS011;31860;45.186;5.790;2023-03-07T04:08:30;1.05;;;0.75;;
46128;SDS011;31860;45.186;5.790;2023-03-07T04:10:57;1.85;;;1.27;;
46128;SDS011;31860;45.186;5.790;2023-03-07T04:13:22;7.93;;;1.02;;
46128;SDS011;31860;45.186;5.790;2023-03-07T04:15:48;1.77;;;1.13;;
46128;SDS011;31860;45.186;5.790;2023-03-07T04:18:13;4.00;;;1.58;;
46128;SDS011;31860;45.186;5.790;2023-03-07T04:20:39;2.97;;;1.55;;
46128;SDS011;31860;45.186;5.790;2023-03-07T04:23:07;3.47;;;1.88;;
46128;SDS011;31860;45.186;5.790;2023-03-07T04:25:32;2.70;;;1.70;;
46128;SDS011;31860;45.186;5.790;2023-03-07T04:27:57;1.65;;;0.93;;
46128;SDS011;31860;45.186;5.790;2023-03-07T04:30:23;4.13;;;1.73;;
46128;SDS011;31860;45.186;5.790;2023-03-07T04:32:48;4.05;;;2.15;;
46128;SDS011;31860;45.186;5.790;2023-03-07T04:35:13;3.28;;;2.00;;
46128;SDS011;31860;45.186;5.790;2023-03-07T04:37:39;4.05;;;2.30;;
46128;SDS011;31860;45.186;5.790;2023-03-07T04:40:04;2.47;;;1.70;;
46128;SDS011;31860;45.186;5.790;2023-03-07T04:42:30;6.95;;;2.15;;
46128;SDS011;31860;45.186;5.790;2023-03-07T04:44:56;5.57;;;2.20;;
46128;SDS011;31860;45.186;5.790;2023-03-07T04:47:21;5.88;;;1.90;;
46128;SDS011;31860;45.186;5.790;2023-03-07T04:49:46;2.33;;;1.67;;
46128;SDS011;31860;45.186;5.790;2023-03-07T04:52:12;6.78;;;2.00;;
46128;SDS011;31860;45.186;5.790;2023-03-07T04:54:37;3.70;;;1.48;;
46128;SDS011;31860;45.186;5.790;2023-03-07T04:57:04;3.50;;;2.60;;
46128;SDS011;31860;45.186;5.790;2023-03-07T04:59:30;4.10;;;1.45;;
46128;SDS011;31860;45.186;5.790;2023-03-07T05:01:55;3.92;;;1.27;;
46128;SDS011;31860;45.186;5.790;2023-03-07T05:04:21;1.58;;;1.48;;
46128;SDS011;31860;45.186;5.790;2023-03-07T05:06:46;1.38;;;1.00;;
46128;SDS011;31860;45.186;5.790;2023-03-07T05:09:11;2.55;;;1.55;;
46128;SDS011;31860;45.186;5.790;2023-03-07T05:11:37;2.10;;;1.30;;
46128;SDS011;31860;45.186;5.790;2023-03-07T05:14:02;5.97;;;1.88;;
46128;SDS011;31860;45.186;5.790;2023-03-07T05:16:27;1.55;;;1.17;;
46128;SDS011;31860;45.186;5.790;2023-03-07T05:18:53;1.85;;;1.40;;
46128;SDS011;31860;45.186;5.790;2023-03-07T05:21:18;4.18;;;1.45;;
46128;SDS011;31860;45.186;5.790;2023-03-07T05:23:44;3.65;;;1.17;;
46128;SDS011;31860;45.186;5.790;2023-03-07T05:26:09;2.85;;;1.55;;
46128;SDS011;31860;45.186;5.790;2023-03-07T05:28:35;1.63;;;1.42;;
46128;SDS011;31860;45.186;5.790;2023-03-07T05:31:00;3.05;;;1.13;;
46128;SDS011;31860;45.186;5.790;2023-03-07T05:33:26;1.30;;;1.13;;
46128;SDS011;31860;45.186;5.790;2023-03-07T05:35:51;1.42;;;1.05;;
46128;SDS011;31860;45.186;5.790;2023-03-07T05:38:16;2.60;;;1.27;;
46128;SDS011;31860;45.186;5.790;2023-03-07T05:40:42;3.95;;;1.58;;
46128;SDS011;31860;45.186;5.790;2023-03-07T05:43:08;1.10;;;1.10;;
46128;SDS011;31860;45.186;5.790;2023-03-07T05:45:33;0.98;;;0.98;;
46128;SDS011;31860;45.186;5.790;2023-03-07T05:47:59;1.85;;;1.60;;
46128;SDS011;31860;45.186;5.790;2023-03-07T05:50:24;1.20;;;1.10;;
46128;SDS011;31860;45.186;5.790;2023-03-07T05:52:50;1.58;;;1.38;;
46128;SDS011;31860;45.186;5.790;2023-03-07T05:55:16;1.23;;;1.10;;
46128;SDS011;31860;45.186;5.790;2023-03-07T05:57:42;1.60;;;1.50;;
46128;SDS011;31860;45.186;5.790;2023-03-07T06:00:08;1.52;;;1.25;;
46128;SDS011;31860;45.186;5.790;2023-03-07T06:02:35;7.35;;;1.85;;
46128;SDS011;31860;45.186;5.790;2023-03-07T06:05:00;5.25;;;1.67;;
46128;SDS011;31860;45.186;5.790;2023-03-07T06:07:26;1.92;;;1.27;;
46128;SDS011;31860;45.186;5.790;2023-03-07T06:09:51;1.30;;;1.20;;
46128;SDS011;31860;45.186;5.790;2023-03-07T06:12:17;1.95;;;1.52;;
46128;SDS011;31860;45.186;5.790;2023-03-07T06:14:42;2.20;;;1.55;;
46128;SDS011;31860;45.186;5.790;2023-03-07T06:17:07;2.22;;;1.35;;
46128;SDS011;31860;45.186;5.790;2023-03-07T06:19:33;2.90;;;1.77;;
46128;SDS011;31860;45.186;5.790;2023-03-07T06:21:58;5.57;;;2.35;;
46128;SDS011;31860;45.186;5.790;2023-03-07T06:24:24;5.85;;;1.58;;
46128;SDS011;31860;45.186;5.790;2023-03-07T06:26:49;4.13;;;1.85;;
46128;SDS011;31860;45.186;5.790;2023-03-07T06:29:14;1.90;;;1.80;;
46128;SDS011;31860;45.186;5.790;2023-03-07T06:31:40;2.78;;;1.67;;
46128;SDS011;31860;45.186;5.790;2023-03-07T06:34:05;3.25;;;1.30;;
46128;SDS011;31860;45.186;5.790;2023-03-07T06:36:30;1.55;;;1.45;;
46128;SDS011;31860;45.186;5.790;2023-03-07T06:38:56;3.80;;;1.67;;
46128;SDS011;31860;45.186;5.790;2023-03-07T06:41:21;6.68;;;2.05;;
46128;SDS011;31860;45.186;5.790;2023-03-07T06:43:50;8.70;;;2.55;;
46128;SDS011;31860;45.186;5.790;2023-03-07T06:46:17;6.35;;;3.00;;
46128;SDS011;31860;45.186;5.790;2023-03-07T06:48:42;5.97;;;2.75;;
46128;SDS011;31860;45.186;5.790;2023-03-07T06:51:08;3.75;;;2.42;;
46128;SDS011;31860;45.186;5.790;2023-03-07T06:53:34;8.40;;;2.67;;
46128;SDS011;31860;45.186;5.790;2023-03-07T06:56:00;4.93;;;3.00;;
46128;SDS011;31860;45.186;5.790;2023-03-07T06:58:25;4.55;;;2.55;;
46128;SDS011;31860;45.186;5.790;2023-03-07T07:00:51;2.47;;;1.77;;
46128;SDS011;31860;45.186;5.790;2023-03-07T07:03:17;2.00;;;1.75;;
46128;SDS011;31860;45.186;5.790;2023-03-07T07:05:43;6.57;;;2.05;;
46128;SDS011;31860;45.186;5.790;2023-03-07T07:08:09;16.33;;;2.33;;
46128;SDS011;31860;45.186;5.790;2023-03-07T07:10:35;6.32;;;1.92;;
46128;SDS011;31860;45.186;5.790;2023-03-07T07:13:01;2.60;;;2.08;;
46128;SDS011;31860;45.186;5.790;2023-03-07T07:15:26;5.45;;;1.85;;
46128;SDS011;31860;45.186;5.790;2023-03-07T07:17:52;4.72;;;1.85;;
46128;SDS011;31860;45.186;5.790;2023-03-07T07:20:17;2.63;;;1.90;;
46128;SDS011;31860;45.186;5.790;2023-03-07T07:22:43;4.40;;;2.05;;
46128;SDS011;31860;45.186;5.790;2023-03-07T07:25:09;1.98;;;1.50;;
46128;SDS011;31860;45.186;5.790;2023-03-07T07:27:35;3.75;;;2.53;;
46128;SDS011;31860;45.186;5.790;2023-03-07T07:30:04;6.88;;;1.58;;
46128;SDS011;31860;45.186;5.790;2023-03-07T07:32:31;4.40;;;2.88;;
46128;SDS011;31860;45.186;5.790;2023-03-07T07:34:56;2.90;;;2.03;;
46128;SDS011;31860;45.186;5.790;2023-03-07T07:37:22;11.45;;;2.55;;
46128;SDS011;31860;45.186;5.790;2023-03-07T07:39:51;3.35;;;2.42;;
46128;SDS011;31860;45.186;5.790;2023-03-07T07:42:16;2.03;;;1.40;;
46128;SDS011;31860;45.186;5.790;2023-03-07T07:44:42;4.78;;;2.33;;
46128;SDS011;31860;45.186;5.790;2023-03-07T07:47:08;1.17;;;1.17;;
46128;SDS011;31860;45.186;5.790;2023-03-07T07:49:33;3.78;;;1.85;;
46128;SDS011;31860;45.186;5.790;2023-03-07T07:51:59;2.15;;;1.60;;
46128;SDS011;31860;45.186;5.790;2023-03-07T07:54:25;5.28;;;1.70;;
46128;SDS011;31860;45.186;5.790;2023-03-07T07:56:50;2.78;;;1.85;;
46128;SDS011;31860;45.186;5.790;2023-03-07T07:59:16;1.92;;;1.42;;
46128;SDS011;31860;45.186;5.790;2023-03-07T08:01:41;2.05;;;1.88;;
46128;SDS011;31860;45.186;5.790;2023-03-07T08:04:07;4.38;;;1.60;;
46128;SDS011;31860;45.186;5.790;2023-03-07T08:06:32;3.35;;;1.58;;
46128;SDS011;31860;45.186;5.790;2023-03-07T08:08:58;4.07;;;2.63;;
46128;SDS011;31860;45.186;5.790;2023-03-07T08:11:24;2.65;;;1.95;;
46128;SDS011;31860;45.186;5.790;2023-03-07T08:13:50;6.90;;;1.52;;
46128;SDS011;31860;45.186;5.790;2023-03-07T08:16:17;4.45;;;2.13;;
46128;SDS011;31860;45.186;5.790;2023-03-07T08:18:51;1.10;;;0.80;;
46128;SDS011;31860;45.186;5.790;2023-03-07T08:21:18;2.58;;;1.35;;
46128;SDS011;31860;45.186;5.790;2023-03-07T08:23:44;4.40;;;1.88;;
46128;SDS011;31860;45.186;5.790;2023-03-07T08:26:09;5.80;;;2.33;;
46128;SDS011;31860;45.186;5.790;2023-03-07T08:28:37;3.22;;;1.63;;
46128;SDS011;31860;45.186;5.790;2023-03-07T08:31:13;5.57;;;2.45;;
46128;SDS011;31860;45.186;5.790;2023-03-07T08:33:40;2.20;;;2.00;;
46128;SDS011;31860;45.186;5.790;2023-03-07T08:36:06;2.15;;;1.83;;
46128;SDS011;31860;45.186;5.790;2023-03-07T08:38:32;4.93;;;1.23;;
46128;SDS011;31860;45.186;5.790;2023-03-07T08:41:01;2.05;;;1.48;;
46128;SDS011;31860;45.186;5.790;2023-03-07T08:43:29;4.95;;;1.67;;
46128;SDS011;31860;45.186;5.790;2023-03-07T08:45:56;5.10;;;2.08;;
46128;SDS011;31860;45.186;5.790;2023-03-07T08:48:21;4.55;;;1.40;;
46128;SDS011;31860;45.186;5.790;2023-03-07T08:50:47;1.15;;;1.02;;
46128;SDS011;31860;45.186;5.790;2023-03-07T08:53:13;2.45;;;1.65;;
46128;SDS011;31860;45.186;5.790;2023-03-07T08:55:39;1.10;;;0.85;;
46128;SDS011;31860;45.186;5.790;2023-03-07T08:58:05;0.75;;;0.75;;
46128;SDS011;31860;45.186;5.790;2023-03-07T09:00:31;4.85;;;1.02;;
46128;SDS011;31860;45.186;5.790;2023-03-07T09:02:56;1.13;;;0.90;;
46128;SDS011;31860;45.186;5.790;2023-03-07T09:05:26;2.83;;;1.15;;
46128;SDS011;31860;45.186;5.790;2023-03-07T09:07:52;1.85;;;1.50;;
46128;SDS011;31860;45.186;5.790;2023-03-07T09:10:18;2.53;;;1.35;;
46128;SDS011;31860;45.186;5.790;2023-03-07T09:12:45;7.43;;;1.20;;
46128;SDS011;31860;45.186;5.790;2023-03-07T09:15:11;2.03;;;1.80;;
46128;SDS011;31860;45.186;5.790;2023-03-07T09:17:36;2.05;;;0.88;;
46128;SDS011;31860;45.186;5.790;2023-03-07T09:20:02;0.50;;;0.50;;
46128;SDS011;31860;45.186;5.790;2023-03-07T09:22:28;2.30;;;1.33;;
46128;SDS011;31860;45.186;5.790;2023-03-07T09:24:54;1.90;;;1.42;;
46128;SDS011;31860;45.186;5.790;2023-03-07T09:27:20;2.95;;;1.45;;
46128;SDS011;31860;45.186;5.790;2023-03-07T09:29:45;1.17;;;1.08;;
46128;SDS011;31860;45.186;5.790;2023-03-07T09:32:11;3.53;;;1.45;;
46128;SDS011;31860;45.186;5.790;2023-03-07T09:34:36;2.28;;;1.45;;
46128;SDS011;31860;45.186;5.790;2023-03-07T09:37:02;1.23;;;1.05;;
46128;SDS011;31860;45.186;5.790;2023-03-07T09:39:28;2.10;;;1.10;;
46128;SDS011;31860;45.186;5.790;2023-03-07T09:42:41;0.70;;;0.70;;
46128;SDS011;31860;45.186;5.790;2023-03-07T09:44:55;1.70;;;1.13;;
46128;SDS011;31860;45.186;5.790;2023-03-07T09:53:35;0.60;;;0.60;;
46128;SDS011;31860;45.186;5.790;2023-03-07T09:56:12;1.63;;;1.42;;
46128;SDS011;31860;45.186;5.790;2023-03-07T09:58:44;1.20;;;1.10;;
46128;SDS011;31860;45.186;5.790;2023-03-07T10:01:15;2.15;;;1.70;;
46128;SDS011;31860;45.186;5.790;2023-03-07T10:03:54;7.38;;;1.20;;
46128;SDS011;31860;45.186;5.790;2023-03-07T10:06:37;1.85;;;1.00;;
46128;SDS011;31860;45.186;5.790;2023-03-07T10:09:13;1.58;;;0.65;;
46128;SDS011;31860;45.186;5.790;2023-03-07T10:14:40;1.33;;;0.88;;
46128;SDS011;31860;45.186;5.790;2023-03-07T10:19:50;5.13;;;1.25;;
46128;SDS011;31860;45.186;5.790;2023-03-07T10:22:21;1.13;;;1.02;;
46128;SDS011;31860;45.186;5.790;2023-03-07T10:28:17;2.30;;;1.00;;
46128;SDS011;31860;45.186;5.790;2023-03-07T10:30:47;2.05;;;0.73;;
46128;SDS011;31860;45.186;5.790;2023-03-07T10:33:16;1.30;;;1.20;;
46128;SDS011;31860;45.186;5.790;2023-03-07T10:35:43;0.73;;;0.73;;
46128;SDS011;31860;45.186;5.790;2023-03-07T10:38:21;0.85;;;0.65;;
46128;SDS011;31860;45.186;5.790;2023-03-07T10:40:56;1.38;;;1.20;;
46128;SDS011;31860;45.186;5.790;2023-03-07T10:43:29;1.25;;;1.02;;
46128;SDS011;31860;45.186;5.790;2023-03-07T10:46:02;0.82;;;0.82;;
46128;SDS011;31860;45.186;5.790;2023-03-07T10:48:33;1.65;;;1.42;;
46128;SDS011;31860;45.186;5.790;2023-03-07T10:54:00;1.73;;;1.23;;
46128;SDS011;31860;45.186;5.790;2023-03-07T10:56:26;0.95;;;0.60;;
46128;SDS011;31860;45.186;5.790;2023-03-07T10:59:07;1.60;;;1.17;;
46128;SDS011;31860;45.186;5.790;2023-03-07T11:01:34;1.65;;;1.55;;
46128;SDS011;31860;45.186;5.790;2023-03-07T11:04:03;2.15;;;1.05;;
46128;SDS011;31860;45.186;5.790;2023-03-07T11:07:09;1.33;;;1.20;;
46128;SDS011;31860;45.186;5.790;2023-03-07T11:09:46;2.45;;;1.10;;
46128;SDS011;31860;45.186;5.790;2023-03-07T11:12:15;1.13;;;1.02;;
46128;SDS011;31860;45.186;5.790;2023-03-07T11:14:51;4.50;;;1.10;;
46128;SDS011;31860;45.186;5.790;2023-03-07T11:19:53;2.75;;;0.98;;
46128;SDS011;31860;45.186;5.790;2023-03-07T11:22:21;2.97;;;1.38;;
46128;SDS011;31860;45.186;5.790;2023-03-07T11:24:56;2.50;;;1.05;;
46128;SDS011;31860;45.186;5.790;2023-03-07T11:27:50;0.52;;;0.52;;
46128;SDS011;31860;45.186;5.790;2023-03-07T11:32:52;2.08;;;1.27;;
46128;SDS011;31860;45.186;5.790;2023-03-07T11:35:32;4.63;;;1.35;;
46128;SDS011;31860;45.186;5.790;2023-03-07T11:38:05;1.88;;;1.23;;
46128;SDS011;31860;45.186;5.790;2023-03-07T11:40:52;4.40;;;1.00;;
46128;SDS011;31860;45.186;5.790;2023-03-07T11:51:30;1.52;;;1.08;;
46128;SDS011;31860;45.186;5.790;2023-03-07T11:57:03;1.40;;;0.80;;
46128;SDS011;31860;45.186;5.790;2023-03-07T11:59:58;2.38;;;1.00;;
46128;SDS011;31860;45.186;5.790;2023-03-07T12:02:46;1.05;;;1.00;;
46128;SDS011;31860;45.186;5.790;2023-03-07T12:05:18;1.38;;;1.15;;
46128;SDS011;31860;45.186;5.790;2023-03-07T12:13:49;2.60;;;1.25;;
46128;SDS011;31860;45.186;5.790;2023-03-07T12:18:59;0.77;;;0.77;;
46128;SDS011;31860;45.186;5.790;2023-03-07T12:24:24;0.70;;;0.70;;
46128;SDS011;31860;45.186;5.790;2023-03-07T12:27:26;0.75;;;0.75;;
46128;SDS011;31860;45.186;5.790;2023-03-07T12:29:53;0.63;;;0.63;;
46128;SDS011;31860;45.186;5.790;2023-03-07T12:32:23;1.42;;;1.05;;
46128;SDS011;31860;45.186;5.790;2023-03-07T12:37:48;1.65;;;1.55;;
46128;SDS011;31860;45.186;5.790;2023-03-07T12:40:24;7.53;;;1.27;;
46128;SDS011;31860;45.186;5.790;2023-03-07T12:45:44;1.55;;;1.17;;
46128;SDS011;31860;45.186;5.790;2023-03-07T12:48:25;1.00;;;0.80;;
46128;SDS011;31860;45.186;5.790;2023-03-07T12:51:22;1.02;;;0.90;;
46128;SDS011;31860;45.186;5.790;2023-03-07T12:54:11;0.90;;;0.85;;
46128;SDS011;31860;45.186;5.790;2023-03-07T12:59:15;2.20;;;1.38;;
46128;SDS011;31860;45.186;5.790;2023-03-07T13:04:25;1.42;;;0.98;;
46128;SDS011;31860;45.186;5.790;2023-03-07T13:07:22;0.93;;;0.93;;
46128;SDS011;31860;45.186;5.790;2023-03-07T13:09:49;0.57;;;0.57;;
46128;SDS011;31860;45.186;5.790;2023-03-07T13:12:21;2.17;;;1.23;;
46128;SDS011;31860;45.186;5.790;2023-03-07T13:19:55;1.20;;;0.85;;
46128;SDS011;31860;45.186;5.790;2023-03-07T13:33:41;0.50;;;0.50;;
46128;SDS011;31860;45.186;5.790;2023-03-07T13:39:00;0.68;;;0.50;;
46128;SDS011;31860;45.186;5.790;2023-03-07T13:41:42;3.55;;;0.82;;
46128;SDS011;31860;45.186;5.790;2023-03-07T13:47:03;2.15;;;0.60;;
46128;SDS011;31860;45.186;5.790;2023-03-07T13:49:36;0.70;;;0.50;;
46128;SDS011;31860;45.186;5.790;2023-03-07T13:52:23;5.05;;;1.08;;
46128;SDS011;31860;45.186;5.790;2023-03-07T13:54:54;0.68;;;0.68;;
46128;SDS011;31860;45.186;5.790;2023-03-07T13:57:21;0.63;;;0.63;;
46128;SDS011;31860;45.186;5.790;2023-03-07T13:59:51;3.03;;;0.75;;
46128;SDS011;31860;45.186;5.790;2023-03-07T14:02:18;0.75;;;0.75;;
46128;SDS011;31860;45.186;5.790;2023-03-07T14:04:45;0.57;;;0.52;;
46128;SDS011;31860;45.186;5.790;2023-03-07T14:26:28;0.90;;;0.65;;
46128;SDS011;31860;45.186;5.790;2023-03-07T14:29:18;3.33;;;1.27;;
46128;SDS011;31860;45.186;5.790;2023-03-07T14:31:49;0.38;;;0.38;;
46128;SDS011;31860;45.186;5.790;2023-03-07T14:36:53;1.27;;;0.73;;
46128;SDS011;31860;45.186;5.790;2023-03-07T14:39:23;3.35;;;0.70;;
46128;SDS011;31860;45.186;5.790;2023-03-07T14:41:54;0.80;;;0.70;;
46128;SDS011;31860;45.186;5.790;2023-03-07T14:44:54;0.38;;;0.38;;
46128;SDS011;31860;45.186;5.790;2023-03-07T14:50:13;1.52;;;1.17;;
46128;SDS011;31860;45.186;5.790;2023-03-07T14:52:42;0.68;;;0.68;;
46128;SDS011;31860;45.186;5.790;2023-03-07T14:55:13;0.50;;;0.50;;
46128;SDS011;31860;45.186;5.790;2023-03-07T14:57:43;0.70;;;0.63;;
46128;SDS011;31860;45.186;5.790;2023-03-07T15:00:12;0.60;;;0.60;;
46128;SDS011;31860;45.186;5.790;2023-03-07T15:05:17;0.80;;;0.80;;
46128;SDS011;31860;45.186;5.790;2023-03-07T15:07:45;0.70;;;0.68;;
46128;SDS011;31860;45.186;5.790;2023-03-07T15:13:07;0.20;;;0.20;;
46128;SDS011;31860;45.186;5.790;2023-03-07T15:15:42;1.33;;;0.57;;
46128;SDS011;31860;45.186;5.790;2023-03-07T15:20:47;0.40;;;0.40;;
46128;SDS011;31860;45.186;5.790;2023-03-07T15:23:18;0.50;;;0.50;;
46128;SDS011;31860;45.186;5.790;2023-03-07T15:25:49;0.30;;;0.30;;
46128;SDS011;31860;45.186;5.790;2023-03-07T15:28:19;0.55;;;0.55;;
46128;SDS011;31860;45.186;5.790;2023-03-07T15:30:48;0.30;;;0.30;;
46128;SDS011;31860;45.186;5.790;2023-03-07T15:35:44;0.40;;;0.40;;
46128;SDS011;31860;45.186;5.790;2023-03-07T15:38:29;0.40;;;0.40;;
46128;SDS011;31860;45.186;5.790;2023-03-07T15:40:54;0.40;;;0.40;;
46128;SDS011;31860;45.186;5.790;2023-03-07T15:45:56;0.43;;;0.43;;
46128;SDS011;31860;45.186;5.790;2023-03-07T15:48:33;1.75;;;0.47;;
46128;SDS011;31860;45.186;5.790;2023-03-07T15:51:02;0.50;;;0.50;;
46128;SDS011;31860;45.186;5.790;2023-03-07T15:53:37;0.60;;;0.60;;
46128;SDS011;31860;45.186;5.790;2023-03-07T15:56:05;2.38;;;0.70;;
46128;SDS011;31860;45.186;5.790;2023-03-07T15:58:44;0.90;;;0.65;;
46128;SDS011;31860;45.186;5.790;2023-03-07T16:03:53;0.73;;;0.68;;
46128;SDS011;31860;45.186;5.790;2023-03-07T16:06:35;0.88;;;0.82;;
46128;SDS011;31860;45.186;5.790;2023-03-07T16:09:11;0.52;;;0.50;;
46128;SDS011;31860;45.186;5.790;2023-03-07T16:11:41;0.50;;;0.50;;
46128;SDS011;31860;45.186;5.790;2023-03-07T16:16:45;1.30;;;1.20;;
46128;SDS011;31860;45.186;5.790;2023-03-07T16:19:11;1.58;;;1.27;;
46128;SDS011;31860;45.186;5.790;2023-03-07T16:21:36;1.05;;;0.95;;
46128;SDS011;31860;45.186;5.790;2023-03-07T16:24:02;1.35;;;0.98;;
46128;SDS011;31860;45.186;5.790;2023-03-07T16:26:27;1.52;;;0.65;;
46128;SDS011;31860;45.186;5.790;2023-03-07T16:28:53;1.55;;;1.33;;
46128;SDS011;31860;45.186;5.790;2023-03-07T16:31:19;1.85;;;1.23;;
46128;SDS011;31860;45.186;5.790;2023-03-07T16:33:45;6.43;;;1.40;;
46128;SDS011;31860;45.186;5.790;2023-03-07T16:36:12;1.55;;;1.45;;
46128;SDS011;31860;45.186;5.790;2023-03-07T16:38:39;4.75;;;1.30;;
46128;SDS011;31860;45.186;5.790;2023-03-07T16:41:26;1.10;;;1.02;;
46128;SDS011;31860;45.186;5.790;2023-03-07T16:43:52;1.23;;;1.13;;
46128;SDS011;31860;45.186;5.790;2023-03-07T16:46:19;0.77;;;0.77;;
46128;SDS011;31860;45.186;5.790;2023-03-07T16:48:45;3.70;;;1.05;;
46128;SDS011;31860;45.186;5.790;2023-03-07T16:51:14;1.25;;;0.82;;
46128;SDS011;31860;45.186;5.790;2023-03-07T16:53:42;3.13;;;0.95;;
46128;SDS011;31860;45.186;5.790;2023-03-07T16:56:10;0.52;;;0.52;;
46128;SDS011;31860;45.186;5.790;2023-03-07T16:58:43;1.48;;;1.25;;
46128;SDS011;31860;45.186;5.790;2023-03-07T17:01:10;0.52;;;0.52;;
46128;SDS011;31860;45.186;5.790;2023-03-07T17:03:37;1.38;;;1.20;;
46128;SDS011;31860;45.186;5.790;2023-03-07T17:06:03;2.17;;;0.98;;
46128;SDS011;31860;45.186;5.790;2023-03-07T17:08:28;1.05;;;0.55;;
46128;SDS011;31860;45.186;5.790;2023-03-07T17:10:54;0.68;;;0.68;;